sensor_id;sensor_type;location;lat;lon;timestamp;pressure;altitude;pressure_sealevel;temperature;humidity
67499;BME280;54345;42.670;23.218;2022-12-07T10:38:44;92311.97;;;6.69;100.00
67499;BME280;54345;42.670;23.218;2022-12-07T10:41:10;92318.22;;;6.93;100.00
67499;BME280;54345;42.670;23.218;2022-12-07T10:43:36;92308.72;;;6.76;100.00
67499;BME280;54345;42.670;23.218;2022-12-07T10:49:16;92306.34;;;7.07;100.00
67499;BME280;54345;42.670;23.218;2022-12-07T10:52:01;92304.56;;;7.21;100.00
67499;BME280;54345;42.670;23.218;2022-12-07T11:00:01;92282.56;;;7.64;100.00
67499;BME280;54345;42.670;23.218;2022-12-07T11:02:55;92278.66;;;7.84;100.00
67499;BME280;54345;42.670;23.218;2022-12-07T11:08:19;92274.75;;;7.79;100.00
67499;BME280;54345;42.670;23.218;2022-12-07T11:10:58;92262.44;;;7.54;100.00
67499;BME280;54345;42.670;23.218;2022-12-07T11:13:42;92268.88;;;7.17;100.00
67499;BME280;54345;42.670;23.218;2022-12-07T11:19:33;92252.81;;;7.24;100.00
67499;BME280;54345;42.670;23.218;2022-12-07T11:22:36;92249.91;;;7.17;100.00
67499;BME280;54345;42.670;23.218;2022-12-07T11:31:28;92254.31;;;7.25;100.00
67499;BME280;54345;42.670;23.218;2022-12-07T11:41:09;92252.81;;;7.24;100.00
67499;BME280;54345;42.670;23.218;2022-12-07T11:43:54;92246.31;;;7.38;100.00
67499;BME280;54345;42.670;23.218;2022-12-07T11:46:25;92236.34;;;7.22;100.00
67499;BME280;54345;42.670;23.218;2022-12-07T11:49:11;92243.88;;;7.64;100.00
67499;BME280;54345;42.670;23.218;2022-12-07T11:51:39;92226.34;;;7.41;100.00
67499;BME280;54345;42.670;23.218;2022-12-07T11:54:35;92227.06;;;7.71;100.00
67499;BME280;54345;42.670;23.218;2022-12-07T11:57:10;92231.94;;;7.48;100.00
67499;BME280;54345;42.670;23.218;2022-12-07T11:59:47;92226.41;;;7.59;100.00
67499;BME280;54345;42.670;23.218;2022-12-07T12:02:26;92233.50;;;7.68;100.00
67499;BME280;54345;42.670;23.218;2022-12-07T12:05:20;92219.53;;;7.58;100.00
67499;BME280;54345;42.670;23.218;2022-12-07T12:07:50;92219.03;;;7.60;100.00
67499;BME280;54345;42.670;23.218;2022-12-07T12:10:26;92217.25;;;7.68;100.00
67499;BME280;54345;42.670;23.218;2022-12-07T12:16:06;92199.81;;;8.06;100.00
67499;BME280;54345;42.670;23.218;2022-12-07T12:21:08;92204.47;;;8.11;100.00
67499;BME280;54345;42.670;23.218;2022-12-07T12:23:41;92202.81;;;8.02;100.00
67499;BME280;54345;42.670;23.218;2022-12-07T12:26:18;92198.13;;;8.03;100.00
67499;BME280;54345;42.670;23.218;2022-12-07T12:33:59;92183.03;;;8.31;100.00
67499;BME280;54345;42.670;23.218;2022-12-07T12:46:59;92169.16;;;8.53;100.00
67499;BME280;54345;42.670;23.218;2022-12-07T12:51:52;92174.91;;;9.00;100.00
67499;BME280;54345;42.670;23.218;2022-12-07T13:01:48;92159.81;;;9.75;100.00
67499;BME280;54345;42.670;23.218;2022-12-07T13:44:52;92164.22;;;8.89;100.00
67499;BME280;54345;42.670;23.218;2022-12-07T13:47:41;92165.53;;;8.51;100.00
67499;BME280;54345;42.670;23.218;2022-12-07T13:50:27;92171.47;;;8.99;100.00
67499;BME280;54345;42.670;23.218;2022-12-07T13:52:57;92164.59;;;8.80;100.00
67499;BME280;54345;42.670;23.218;2022-12-07T13:55:23;92146.59;;;8.64;100.00
67499;BME280;54345;42.670;23.218;2022-12-07T13:57:51;92166.44;;;8.90;100.00
67499;BME280;54345;42.670;23.218;2022-12-07T14:00:25;92159.97;;;8.93;100.00
67499;BME280;54345;42.670;23.218;2022-12-07T14:02:56;92159.16;;;8.80;100.00
67499;BME280;54345;42.670;23.218;2022-12-07T14:05:32;92152.16;;;8.71;100.00
67499;BME280;54345;42.670;23.218;2022-12-07T14:10:38;92162.88;;;8.45;100.00
67499;BME280;54345;42.670;23.218;2022-12-07T14:15:55;92171.66;;;8.51;100.00
67499;BME280;54345;42.670;23.218;2022-12-07T14:18:27;92167.34;;;8.43;100.00
67499;BME280;54345;42.670;23.218;2022-12-07T14:21:15;92188.53;;;8.26;100.00
67499;BME280;54345;42.670;23.218;2022-12-07T14:23:42;92181.25;;;7.91;100.00
67499;BME280;54345;42.670;23.218;2022-12-07T14:26:12;92191.34;;;8.15;100.00
67499;BME280;54345;42.670;23.218;2022-12-07T14:28:42;92187.59;;;8.18;100.00
67499;BME280;54345;42.670;23.218;2022-12-07T14:31:17;92187.41;;;7.92;100.00
67499;BME280;54345;42.670;23.218;2022-12-07T14:33:43;92189.94;;;7.60;100.00
67499;BME280;54345;42.670;23.218;2022-12-07T14:36:09;92189.56;;;7.75;100.00
67499;BME280;54345;42.670;23.218;2022-12-07T14:38:35;92184.50;;;7.90;100.00
67499;BME280;54345;42.670;23.218;2022-12-07T14:41:02;92189.63;;;7.93;100.00
67499;BME280;54345;42.670;23.218;2022-12-07T14:43:47;92184.03;;;7.62;100.00
67499;BME280;54345;42.670;23.218;2022-12-07T14:46:13;92175.88;;;8.10;100.00
67499;BME280;54345;42.670;23.218;2022-12-07T14:48:38;92171.38;;;7.94;100.00
67499;BME280;54345;42.670;23.218;2022-12-07T14:51:04;92168.75;;;7.41;100.00
67499;BME280;54345;42.670;23.218;2022-12-07T14:53:35;92176.06;;;7.69;100.00
67499;BME280;54345;42.670;23.218;2022-12-07T14:56:02;92181.69;;;7.77;100.00
67499;BME280;54345;42.670;23.218;2022-12-07T14:58:30;92181.81;;;7.60;100.00
67499;BME280;54345;42.670;23.218;2022-12-07T15:00:57;92187.44;;;8.10;100.00
67499;BME280;54345;42.670;23.218;2022-12-07T15:03:23;92170.78;;;8.25;100.00
67499;BME280;54345;42.670;23.218;2022-12-07T15:05:48;92168.25;;;8.08;100.00
67499;BME280;54345;42.670;23.218;2022-12-07T15:08:14;92177.25;;;8.40;100.00
67499;BME280;54345;42.670;23.218;2022-12-07T15:10:40;92179.41;;;8.23;100.00
67499;BME280;54345;42.670;23.218;2022-12-07T15:13:06;92190.09;;;8.16;100.00
67499;BME280;54345;42.670;23.218;2022-12-07T15:15:51;92191.81;;;7.95;100.00
67499;BME280;54345;42.670;23.218;2022-12-07T15:18:18;92183.31;;;7.85;100.00
67499;BME280;54345;42.670;23.218;2022-12-07T15:20:44;92199.75;;;7.69;100.00
67499;BME280;54345;42.670;23.218;2022-12-07T15:23:11;92203.69;;;7.68;100.00
67499;BME280;54345;42.670;23.218;2022-12-07T15:25:40;92209.06;;;7.44;100.00
67499;BME280;54345;42.670;23.218;2022-12-07T15:28:06;92202.81;;;7.31;100.00
67499;BME280;54345;42.670;23.218;2022-12-07T15:30:31;92213.94;;;7.51;100.00
67499;BME280;54345;42.670;23.218;2022-12-07T15:32:57;92201.75;;;7.87;100.00
67499;BME280;54345;42.670;23.218;2022-12-07T15:35:23;92218.50;;;7.67;100.00
67499;BME280;54345;42.670;23.218;2022-12-07T15:37:48;92219.38;;;7.75;100.00
67499;BME280;54345;42.670;23.218;2022-12-07T15:40:14;92212.94;;;8.02;100.00
67499;BME280;54345;42.670;23.218;2022-12-07T15:42:40;92217.84;;;7.79;100.00
67499;BME280;54345;42.670;23.218;2022-12-07T15:45:07;92222.56;;;7.79;100.00
67499;BME280;54345;42.670;23.218;2022-12-07T15:47:40;92225.06;;;7.71;100.00
67499;BME280;54345;42.670;23.218;2022-12-07T15:50:09;92209.56;;;7.13;100.00
67499;BME280;54345;42.670;23.218;2022-12-07T15:52:35;92215.72;;;7.96;100.00
67499;BME280;54345;42.670;23.218;2022-12-07T15:55:01;92203.81;;;7.81;100.00
67499;BME280;54345;42.670;23.218;2022-12-07T15:57:32;92207.59;;;7.72;100.00
67499;BME280;54345;42.670;23.218;2022-12-07T15:59:58;92202.59;;;8.00;100.00
67499;BME280;54345;42.670;23.218;2022-12-07T16:02:24;92213.41;;;7.82;100.00
67499;BME280;54345;42.670;23.218;2022-12-07T16:04:50;92211.38;;;7.88;100.00
67499;BME280;54345;42.670;23.218;2022-12-07T16:07:17;92208.97;;;8.03;100.00
67499;BME280;54345;42.670;23.218;2022-12-07T16:09:43;92206.19;;;7.90;100.00
67499;BME280;54345;42.670;23.218;2022-12-07T16:12:10;92211.66;;;7.84;100.00
67499;BME280;54345;42.670;23.218;2022-12-07T16:14:36;92209.00;;;7.79;100.00
67499;BME280;54345;42.670;23.218;2022-12-07T16:17:02;92203.81;;;8.23;100.00
67499;BME280;54345;42.670;23.218;2022-12-07T16:19:30;92194.34;;;8.35;100.00
67499;BME280;54345;42.670;23.218;2022-12-07T16:21:56;92201.81;;;7.81;100.00
67499;BME280;54345;42.670;23.218;2022-12-07T16:24:22;92208.19;;;7.36;100.00
67499;BME280;54345;42.670;23.218;2022-12-07T16:26:48;92229.69;;;7.23;100.00
67499;BME280;54345;42.670;23.218;2022-12-07T16:29:14;92237.88;;;7.47;100.00
67499;BME280;54345;42.670;23.218;2022-12-07T16:31:40;92233.84;;;7.24;100.00
67499;BME280;54345;42.670;23.218;2022-12-07T16:34:06;92245.22;;;6.82;100.00
67499;BME280;54345;42.670;23.218;2022-12-07T16:36:32;92259.75;;;7.20;100.00
67499;BME280;54345;42.670;23.218;2022-12-07T16:38:59;92242.97;;;7.27;100.00
67499;BME280;54345;42.670;23.218;2022-12-07T16:41:25;92241.69;;;6.98;100.00
67499;BME280;54345;42.670;23.218;2022-12-07T16:43:51;92253.88;;;7.45;100.00
67499;BME280;54345;42.670;23.218;2022-12-07T16:46:17;92252.72;;;7.41;100.00
67499;BME280;54345;42.670;23.218;2022-12-07T16:48:43;92247.25;;;7.11;100.00
67499;BME280;54345;42.670;23.218;2022-12-07T16:51:11;92254.41;;;7.43;100.00
67499;BME280;54345;42.670;23.218;2022-12-07T16:53:38;92245.78;;;7.39;100.00
67499;BME280;54345;42.670;23.218;2022-12-07T16:56:10;92257.28;;;7.51;100.00
67499;BME280;54345;42.670;23.218;2022-12-07T16:58:35;92267.91;;;7.14;100.00
67499;BME280;54345;42.670;23.218;2022-12-07T17:01:12;92256.28;;;7.25;100.00
67499;BME280;54345;42.670;23.218;2022-12-07T17:03:39;92263.56;;;7.00;100.00
67499;BME280;54345;42.670;23.218;2022-12-07T17:06:15;92268.25;;;7.35;100.00
67499;BME280;54345;42.670;23.218;2022-12-07T17:08:41;92262.09;;;6.99;100.00
67499;BME280;54345;42.670;23.218;2022-12-07T17:11:18;92260.13;;;6.59;100.00
67499;BME280;54345;42.670;23.218;2022-12-07T17:13:44;92257.13;;;6.68;100.00
67499;BME280;54345;42.670;23.218;2022-12-07T17:16:29;92258.81;;;6.71;100.00
67499;BME280;54345;42.670;23.218;2022-12-07T17:18:55;92264.03;;;6.64;100.00
67499;BME280;54345;42.670;23.218;2022-12-07T17:21:21;92255.19;;;6.63;100.00
67499;BME280;54345;42.670;23.218;2022-12-07T17:23:47;92244.94;;;7.55;100.00
67499;BME280;54345;42.670;23.218;2022-12-07T17:26:18;92250.84;;;8.07;100.00
67499;BME280;54345;42.670;23.218;2022-12-07T17:28:45;92230.28;;;8.17;100.00
67499;BME280;54345;42.670;23.218;2022-12-07T17:31:13;92230.44;;;8.25;100.00
67499;BME280;54345;42.670;23.218;2022-12-07T17:33:39;92225.94;;;8.09;100.00
67499;BME280;54345;42.670;23.218;2022-12-07T17:36:22;92229.09;;;8.13;100.00
67499;BME280;54345;42.670;23.218;2022-12-07T17:38:48;92217.69;;;8.20;100.00
67499;BME280;54345;42.670;23.218;2022-12-07T17:41:17;92216.38;;;8.26;100.00
67499;BME280;54345;42.670;23.218;2022-12-07T17:44:02;92215.44;;;8.24;100.00
67499;BME280;54345;42.670;23.218;2022-12-07T17:46:28;92215.56;;;8.31;100.00
67499;BME280;54345;42.670;23.218;2022-12-07T17:48:54;92200.94;;;8.16;100.00
67499;BME280;54345;42.670;23.218;2022-12-07T17:51:20;92213.09;;;8.33;100.00
67499;BME280;54345;42.670;23.218;2022-12-07T17:54:04;92212.50;;;8.22;100.00
67499;BME280;54345;42.670;23.218;2022-12-07T17:56:30;92217.09;;;8.27;100.00
67499;BME280;54345;42.670;23.218;2022-12-07T17:58:55;92237.09;;;7.76;100.00
67499;BME280;54345;42.670;23.218;2022-12-07T18:01:21;92240.28;;;7.21;100.00
67499;BME280;54345;42.670;23.218;2022-12-07T18:03:46;92252.97;;;6.62;100.00
67499;BME280;54345;42.670;23.218;2022-12-07T18:06:12;92261.88;;;6.51;100.00
67499;BME280;54345;42.670;23.218;2022-12-07T18:08:37;92274.25;;;6.30;100.00
67499;BME280;54345;42.670;23.218;2022-12-07T18:11:04;92274.53;;;6.27;100.00
67499;BME280;54345;42.670;23.218;2022-12-07T18:13:31;92278.00;;;6.79;100.00
67499;BME280;54345;42.670;23.218;2022-12-07T18:16:02;92273.81;;;6.21;100.00
67499;BME280;54345;42.670;23.218;2022-12-07T18:18:28;92291.25;;;6.25;100.00
67499;BME280;54345;42.670;23.218;2022-12-07T18:20:53;92290.31;;;6.74;100.00
67499;BME280;54345;42.670;23.218;2022-12-07T18:23:19;92283.28;;;6.49;100.00
67499;BME280;54345;42.670;23.218;2022-12-07T18:25:49;92287.69;;;6.58;100.00
67499;BME280;54345;42.670;23.218;2022-12-07T18:28:15;92292.94;;;6.34;100.00
67499;BME280;54345;42.670;23.218;2022-12-07T18:30:42;92289.78;;;6.19;100.00
67499;BME280;54345;42.670;23.218;2022-12-07T18:33:08;92290.25;;;6.23;100.00
67499;BME280;54345;42.670;23.218;2022-12-07T18:35:33;92291.72;;;6.29;100.00
67499;BME280;54345;42.670;23.218;2022-12-07T18:37:59;92303.97;;;6.41;100.00
67499;BME280;54345;42.670;23.218;2022-12-07T18:40:25;92305.63;;;6.55;100.00
67499;BME280;54345;42.670;23.218;2022-12-07T18:42:50;92299.19;;;6.69;100.00
67499;BME280;54345;42.670;23.218;2022-12-07T18:45:16;92298.84;;;6.84;100.00
67499;BME280;54345;42.670;23.218;2022-12-07T18:47:41;92307.31;;;6.64;100.00
67499;BME280;54345;42.670;23.218;2022-12-07T18:50:07;92302.31;;;6.16;100.00
67499;BME280;54345;42.670;23.218;2022-12-07T18:52:33;92312.78;;;6.47;100.00
67499;BME280;54345;42.670;23.218;2022-12-07T18:54:58;92304.75;;;6.25;100.00
67499;BME280;54345;42.670;23.218;2022-12-07T18:57:27;92312.25;;;6.65;100.00
67499;BME280;54345;42.670;23.218;2022-12-07T18:59:52;92301.06;;;6.85;100.00
67499;BME280;54345;42.670;23.218;2022-12-07T19:02:18;92307.47;;;6.82;100.00
67499;BME280;54345;42.670;23.218;2022-12-07T19:04:44;92307.88;;;7.38;100.00
67499;BME280;54345;42.670;23.218;2022-12-07T19:07:10;92302.88;;;5.54;100.00
67499;BME280;54345;42.670;23.218;2022-12-07T19:09:36;92310.16;;;6.82;100.00
67499;BME280;54345;42.670;23.218;2022-12-07T19:12:01;92320.41;;;7.00;100.00
67499;BME280;54345;42.670;23.218;2022-12-07T19:14:32;92325.19;;;6.83;100.00
67499;BME280;54345;42.670;23.218;2022-12-07T19:17:04;92312.88;;;6.25;100.00
67499;BME280;54345;42.670;23.218;2022-12-07T19:19:39;92312.16;;;6.14;100.00
67499;BME280;54345;42.670;23.218;2022-12-07T19:22:05;92326.66;;;6.16;100.00
67499;BME280;54345;42.670;23.218;2022-12-07T19:24:31;92316.63;;;5.84;100.00
67499;BME280;54345;42.670;23.218;2022-12-07T19:26:58;92320.84;;;5.79;100.00
67499;BME280;54345;42.670;23.218;2022-12-07T19:29:23;92321.53;;;5.74;100.00
67499;BME280;54345;42.670;23.218;2022-12-07T19:31:52;92315.66;;;5.48;100.00
67499;BME280;54345;42.670;23.218;2022-12-07T19:34:18;92317.59;;;5.75;100.00
67499;BME280;54345;42.670;23.218;2022-12-07T19:36:45;92318.09;;;5.96;100.00
67499;BME280;54345;42.670;23.218;2022-12-07T19:39:11;92312.16;;;6.08;100.00
67499;BME280;54345;42.670;23.218;2022-12-07T19:41:36;92305.34;;;5.19;100.00
67499;BME280;54345;42.670;23.218;2022-12-07T19:44:15;92323.03;;;5.86;100.00
67499;BME280;54345;42.670;23.218;2022-12-07T19:46:42;92320.06;;;5.95;100.00
67499;BME280;54345;42.670;23.218;2022-12-07T19:49:10;92319.09;;;5.87;100.00
67499;BME280;54345;42.670;23.218;2022-12-07T19:51:38;92316.88;;;5.75;100.00
67499;BME280;54345;42.670;23.218;2022-12-07T19:54:04;92310.75;;;5.52;100.00
67499;BME280;54345;42.670;23.218;2022-12-07T19:56:30;92331.63;;;5.68;100.00
67499;BME280;54345;42.670;23.218;2022-12-07T19:58:58;92331.13;;;5.92;100.00
67499;BME280;54345;42.670;23.218;2022-12-07T20:01:24;92325.22;;;5.71;100.00
67499;BME280;54345;42.670;23.218;2022-12-07T20:03:50;92315.66;;;5.37;100.00
67499;BME280;54345;42.670;23.218;2022-12-07T20:06:18;92332.34;;;5.85;100.00
67499;BME280;54345;42.670;23.218;2022-12-07T20:08:45;92325.00;;;5.80;100.00
67499;BME280;54345;42.670;23.218;2022-12-07T20:11:12;92309.25;;;4.91;100.00
67499;BME280;54345;42.670;23.218;2022-12-07T20:13:56;92324.22;;;5.03;100.00
67499;BME280;54345;42.670;23.218;2022-12-07T20:16:22;92317.13;;;5.22;100.00
67499;BME280;54345;42.670;23.218;2022-12-07T20:18:48;92331.13;;;5.64;100.00
67499;BME280;54345;42.670;23.218;2022-12-07T20:21:13;92344.34;;;6.17;100.00
67499;BME280;54345;42.670;23.218;2022-12-07T20:23:39;92335.25;;;6.09;100.00
67499;BME280;54345;42.670;23.218;2022-12-07T20:26:07;92326.94;;;5.58;100.00
67499;BME280;54345;42.670;23.218;2022-12-07T20:28:34;92327.44;;;5.56;100.00
67499;BME280;54345;42.670;23.218;2022-12-07T20:31:00;92325.22;;;5.27;100.00
67499;BME280;54345;42.670;23.218;2022-12-07T20:33:26;92325.97;;;5.44;100.00
67499;BME280;54345;42.670;23.218;2022-12-07T20:35:58;92338.47;;;5.47;100.00
67499;BME280;54345;42.670;23.218;2022-12-07T20:38:26;92347.03;;;5.07;100.00
67499;BME280;54345;42.670;23.218;2022-12-07T20:40:52;92346.50;;;4.92;100.00
67499;BME280;54345;42.670;23.218;2022-12-07T20:43:17;92358.31;;;5.11;100.00
67499;BME280;54345;42.670;23.218;2022-12-07T20:45:46;92356.13;;;5.21;100.00
67499;BME280;54345;42.670;23.218;2022-12-07T20:48:12;92348.50;;;5.08;100.00
67499;BME280;54345;42.670;23.218;2022-12-07T20:50:38;92350.88;;;4.84;100.00
67499;BME280;54345;42.670;23.218;2022-12-07T20:53:03;92336.47;;;4.98;100.00
67499;BME280;54345;42.670;23.218;2022-12-07T20:55:29;92343.06;;;4.92;100.00
67499;BME280;54345;42.670;23.218;2022-12-07T20:57:55;92340.56;;;4.72;100.00
67499;BME280;54345;42.670;23.218;2022-12-07T21:00:21;92346.53;;;5.03;100.00
67499;BME280;54345;42.670;23.218;2022-12-07T21:02:46;92346.56;;;4.40;100.00
67499;BME280;54345;42.670;23.218;2022-12-07T21:05:12;92351.00;;;4.48;100.00
67499;BME280;54345;42.670;23.218;2022-12-07T21:07:38;92349.97;;;4.35;100.00
67499;BME280;54345;42.670;23.218;2022-12-07T21:10:04;92363.28;;;4.49;100.00
67499;BME280;54345;42.670;23.218;2022-12-07T21:12:30;92358.06;;;5.09;100.00
67499;BME280;54345;42.670;23.218;2022-12-07T21:14:55;92348.31;;;5.67;100.00
67499;BME280;54345;42.670;23.218;2022-12-07T21:17:21;92354.19;;;5.76;100.00
67499;BME280;54345;42.670;23.218;2022-12-07T21:19:46;92355.19;;;5.40;100.00
67499;BME280;54345;42.670;23.218;2022-12-07T21:22:12;92352.03;;;5.86;100.00
67499;BME280;54345;42.670;23.218;2022-12-07T21:24:38;92340.41;;;6.24;100.00
67499;BME280;54345;42.670;23.218;2022-12-07T21:27:05;92337.03;;;5.85;100.00
67499;BME280;54345;42.670;23.218;2022-12-07T21:29:31;92332.59;;;5.54;100.00
67499;BME280;54345;42.670;23.218;2022-12-07T21:31:56;92342.16;;;5.94;100.00
67499;BME280;54345;42.670;23.218;2022-12-07T21:34:22;92335.28;;;5.76;100.00
67499;BME280;54345;42.670;23.218;2022-12-07T21:36:48;92337.97;;;5.76;100.00
67499;BME280;54345;42.670;23.218;2022-12-07T21:39:13;92339.75;;;5.85;100.00
67499;BME280;54345;42.670;23.218;2022-12-07T21:41:39;92336.53;;;5.92;100.00
67499;BME280;54345;42.670;23.218;2022-12-07T21:44:06;92348.72;;;6.42;100.00
67499;BME280;54345;42.670;23.218;2022-12-07T21:46:32;92337.66;;;6.29;100.00
67499;BME280;54345;42.670;23.218;2022-12-07T21:48:59;92336.28;;;5.95;100.00
67499;BME280;54345;42.670;23.218;2022-12-07T21:51:27;92338.50;;;5.80;100.00
67499;BME280;54345;42.670;23.218;2022-12-07T21:53:54;92347.81;;;6.07;100.00
67499;BME280;54345;42.670;23.218;2022-12-07T21:56:25;92344.38;;;6.06;100.00
67499;BME280;54345;42.670;23.218;2022-12-07T21:58:52;92329.09;;;6.20;100.00
67499;BME280;54345;42.670;23.218;2022-12-07T22:01:22;92330.88;;;5.73;100.00
67499;BME280;54345;42.670;23.218;2022-12-07T22:03:49;92330.63;;;5.60;100.00
67499;BME280;54345;42.670;23.218;2022-12-07T22:06:18;92340.13;;;6.33;100.00
67499;BME280;54345;42.670;23.218;2022-12-07T22:08:45;92326.69;;;5.67;100.00
67499;BME280;54345;42.670;23.218;2022-12-07T22:11:12;92326.72;;;5.61;100.00
67499;BME280;54345;42.670;23.218;2022-12-07T22:13:39;92333.56;;;5.29;100.00
67499;BME280;54345;42.670;23.218;2022-12-07T22:16:24;92337.19;;;5.04;100.00
67499;BME280;54345;42.670;23.218;2022-12-07T22:18:50;92342.16;;;5.44;100.00
67499;BME280;54345;42.670;23.218;2022-12-07T22:21:16;92334.56;;;5.54;100.00
67499;BME280;54345;42.670;23.218;2022-12-07T22:23:41;92337.50;;;5.45;100.00
67499;BME280;54345;42.670;23.218;2022-12-07T22:26:08;92337.00;;;5.41;100.00
67499;BME280;54345;42.670;23.218;2022-12-07T22:28:38;92328.19;;;5.46;100.00
67499;BME280;54345;42.670;23.218;2022-12-07T22:31:08;92338.97;;;5.57;100.00
67499;BME280;54345;42.670;23.218;2022-12-07T22:33:35;92336.28;;;5.29;100.00
67499;BME280;54345;42.670;23.218;2022-12-07T22:36:01;92324.94;;;5.03;100.00
67499;BME280;54345;42.670;23.218;2022-12-07T22:38:27;92322.25;;;5.09;100.00
67499;BME280;54345;42.670;23.218;2022-12-07T22:40:53;92344.63;;;5.31;100.00
67499;BME280;54345;42.670;23.218;2022-12-07T22:43:19;92337.66;;;4.87;100.00
67499;BME280;54345;42.670;23.218;2022-12-07T22:45:58;92339.66;;;5.02;100.00
67499;BME280;54345;42.670;23.218;2022-12-07T22:48:25;92320.50;;;4.95;100.00
67499;BME280;54345;42.670;23.218;2022-12-07T22:50:52;92338.72;;;5.16;100.00
67499;BME280;54345;42.670;23.218;2022-12-07T22:53:18;92320.28;;;4.93;100.00
67499;BME280;54345;42.670;23.218;2022-12-07T22:55:44;92326.94;;;5.30;100.00
67499;BME280;54345;42.670;23.218;2022-12-07T22:58:10;92319.25;;;4.74;100.00
67499;BME280;54345;42.670;23.218;2022-12-07T23:00:36;92326.44;;;4.35;100.00
67499;BME280;54345;42.670;23.218;2022-12-07T23:03:01;92311.75;;;4.36;100.00
67499;BME280;54345;42.670;23.218;2022-12-07T23:05:27;92321.72;;;4.88;100.00
67499;BME280;54345;42.670;23.218;2022-12-07T23:07:53;92317.13;;;4.31;100.00
67499;BME280;54345;42.670;23.218;2022-12-07T23:10:19;92321.41;;;4.59;100.00
67499;BME280;54345;42.670;23.218;2022-12-07T23:12:45;92315.66;;;5.54;100.00
67499;BME280;54345;42.670;23.218;2022-12-07T23:15:33;92316.81;;;4.82;100.00
67499;BME280;54345;42.670;23.218;2022-12-07T23:17:59;92318.94;;;4.56;100.00
67499;BME280;54345;42.670;23.218;2022-12-07T23:20:24;92324.84;;;4.65;100.00
67499;BME280;54345;42.670;23.218;2022-12-07T23:22:50;92315.88;;;5.06;100.00
67499;BME280;54345;42.670;23.218;2022-12-07T23:25:15;92318.06;;;4.91;100.00
67499;BME280;54345;42.670;23.218;2022-12-07T23:27:41;92320.94;;;4.72;100.00
67499;BME280;54345;42.670;23.218;2022-12-07T23:30:07;92312.84;;;4.66;100.00
67499;BME280;54345;42.670;23.218;2022-12-07T23:32:33;92322.47;;;4.94;100.00
67499;BME280;54345;42.670;23.218;2022-12-07T23:34:58;92335.97;;;5.05;100.00
67499;BME280;54345;42.670;23.218;2022-12-07T23:37:24;92322.19;;;4.82;100.00
67499;BME280;54345;42.670;23.218;2022-12-07T23:39:49;92320.47;;;4.79;100.00
67499;BME280;54345;42.670;23.218;2022-12-07T23:42:15;92322.09;;;4.49;100.00
67499;BME280;54345;42.670;23.218;2022-12-07T23:44:41;92338.53;;;4.56;100.00
67499;BME280;54345;42.670;23.218;2022-12-07T23:47:06;92338.69;;;4.36;100.00
67499;BME280;54345;42.670;23.218;2022-12-07T23:49:32;92333.69;;;4.07;100.00
67499;BME280;54345;42.670;23.218;2022-12-07T23:51:58;92334.47;;;4.82;100.00
67499;BME280;54345;42.670;23.218;2022-12-07T23:54:23;92344.00;;;4.73;100.00
67499;BME280;54345;42.670;23.218;2022-12-07T23:56:49;92364.25;;;4.52;100.00
67499;BME280;54345;42.670;23.218;2022-12-07T23:59:14;92363.06;;;4.64;100.00
